Time;durP1;ratioP1;P1;durP2;ratioP2;P2;SDS_P1;SDS_P2;PMS_P1;PMS_P2;Temp;Humidity;BMP_temperature;BMP_pressure;BME280_temperature;BME280_humidity;BME280_pressure;Samples;Min_cycle;Max_cycle;Signal;HPM_P1;HPM_P2
2023/03/15 00:00:19;;;;;;;;;;;;;;;4.23;100.00;98954.81;5115531;28;19912;-69
2023/03/15 00:02:44;;;;;;;;;;;;;;;4.21;100.00;98954.16;5115569;28;19912;-69
2023/03/15 00:05:11;;;;;;;;;;;;;;;4.19;100.00;98945.59;5115599;28;19964;-70
2023/03/15 00:07:37;;;;;;;;;;;;;;;4.18;100.00;98941.31;5115690;28;19912;-70
2023/03/15 00:10:03;;;;;;;;;;;;;;;4.20;100.00;98940.16;5115272;28;19919;-71
2023/03/15 00:12:28;;;;;;;;;;;;;;;4.21;100.00;98938.34;5080487;28;19912;-69
2023/03/15 00:14:53;;;;;;;;;;;;;;;4.28;100.00;98934.06;5115972;28;19926;-69
2023/03/15 00:17:21;;;;;;;;;;;;;;;4.29;100.00;98925.16;5116745;28;19941;-69
2023/03/15 00:19:47;;;;;;;;;;;;;;;4.22;100.00;98924.19;5115636;28;19912;-72
2023/03/15 00:22:12;;;;;;;;;;;;;;;4.23;100.00;98925.81;5097235;28;19980;-68
2023/03/15 00:24:38;;;;;;;;;;;;;;;4.21;100.00;98930.44;5115152;28;19915;-68
2023/03/15 00:27:04;;;;;;;;;;;;;;;4.22;100.00;98938.19;5115220;28;19919;-70
2023/03/15 00:29:31;;;;;;;;;;;;;;;4.24;100.00;98943.28;5115380;28;19915;-68
2023/03/15 00:31:56;;;;;;;;;;;;;;;4.24;100.00;98943.28;5097719;28;19924;-69
2023/03/15 00:34:24;;;;;;;;;;;;;;;4.27;100.00;98956.13;5097662;28;19980;-68
2023/03/15 00:36:52;;;;;;;;;;;;;;;4.29;100.00;98954.13;5115317;28;20036;-69
2023/03/15 00:39:18;;;;;;;;;;;;;;;4.29;100.00;98954.13;5114829;28;19921;-69
2023/03/15 00:41:44;;;;;;;;;;;;;;;4.31;100.00;98960.88;5114719;28;19912;-71
2023/03/15 00:44:10;;;;;;;;;;;;;;;4.32;100.00;98966.97;5114931;28;20000;-69
2023/03/15 00:46:35;;;;;;;;;;;;;;;4.31;100.00;98962.69;5096546;28;19947;-69
2023/03/15 00:49:00;;;;;;;;;;;;;;;4.32;100.00;98956.44;5114854;28;19919;-72
2023/03/15 00:51:26;;;;;;;;;;;;;;;4.32;100.00;98957.25;5114918;28;20270;-70
2023/03/15 00:53:52;;;;;;;;;;;;;;;4.36;100.00;98957.78;5114839;28;19922;-69
2023/03/15 00:56:18;;;;;;;;;;;;;;;4.33;100.00;98958.09;5114631;28;20438;-67
2023/03/15 00:58:44;;;;;;;;;;;;;;;4.33;100.00;98958.09;5114800;28;19912;-69
2023/03/15 01:01:11;;;;;;;;;;;;;;;4.32;100.00;98953.81;5114359;28;19912;-69
2023/03/15 01:03:38;;;;;;;;;;;;;;;4.34;100.00;98946.59;5114430;28;20373;-70
2023/03/15 01:06:04;;;;;;;;;;;;;;;4.38;100.00;98947.06;5114358;28;19912;-70
2023/03/15 01:08:30;;;;;;;;;;;;;;;4.39;100.00;98952.16;5114338;28;20310;-69
2023/03/15 01:10:55;;;;;;;;;;;;;;;4.39;100.00;98954.81;5115580;28;19911;-70
2023/03/15 01:13:23;;;;;;;;;;;;;;;4.40;100.00;98955.63;5118747;28;19912;-71
2023/03/15 01:15:48;;;;;;;;;;;;;;;4.41;100.00;98960.72;5117311;28;20040;-68
2023/03/15 01:18:13;;;;;;;;;;;;;;;4.47;100.00;98951.31;5116541;28;19936;-69
2023/03/15 01:20:42;;;;;;;;;;;;;;;4.46;100.00;98955.78;5116858;28;19912;-68
2023/03/15 01:23:08;;;;;;;;;;;;;;;4.42;100.00;98962.38;5120373;28;19956;-68
2023/03/15 01:25:34;;;;;;;;;;;;;;;4.43;100.00;98968.47;5116425;28;19915;-70
2023/03/15 01:27:59;;;;;;;;;;;;;;;4.43;100.00;98973.75;5115207;28;19911;-68
2023/03/15 01:30:25;;;;;;;;;;;;;;;4.43;100.00;98971.94;5097886;28;19915;-70
2023/03/15 01:32:50;;;;;;;;;;;;;;;4.47;100.00;98978.50;5114286;28;19962;-69
2023/03/15 01:35:16;;;;;;;;;;;;;;;4.51;100.00;98971.91;5096801;28;19912;-69
2023/03/15 01:37:41;;;;;;;;;;;;;;;4.49;100.00;98968.63;5114120;28;20315;-69
2023/03/15 01:40:11;;;;;;;;;;;;;;;4.46;100.00;98968.97;5078539;28;20454;-70
2023/03/15 01:42:56;;;;;;;;;;;;;;;4.47;100.00;98972.41;5095894;28;20263;-69
2023/03/15 01:45:40;;;;;;;;;;;;;;;4.49;100.00;98968.63;5113866;28;20386;-67
2023/03/15 01:48:06;;;;;;;;;;;;;;;4.43;100.00;98979.00;5113722;28;19912;-69
2023/03/15 01:50:32;;;;;;;;;;;;;;;4.46;100.00;98979.50;5114550;28;19919;-71
2023/03/15 01:52:58;;;;;;;;;;;;;;;4.44;100.00;98980.66;5095908;28;19911;-68
2023/03/15 01:55:23;;;;;;;;;;;;;;;4.49;100.00;98976.53;5113510;28;19933;-68
2023/03/15 01:57:50;;;;;;;;;;;;;;;4.50;100.00;98977.34;5113396;28;19946;-67
2023/03/15 02:00:18;;;;;;;;;;;;;;;4.46;100.00;98979.50;5113092;28;19966;-69
2023/03/15 02:02:50;;;;;;;;;;;;;;;4.49;100.00;98988.88;5113138;28;19912;-71
2023/03/15 02:05:20;;;;;;;;;;;;;;;4.44;100.00;98984.13;5095063;28;19923;-70
2023/03/15 02:07:48;;;;;;;;;;;;;;;4.50;100.00;98982.63;5114108;28;19923;-69
2023/03/15 02:10:19;;;;;;;;;;;;;;;4.51;100.00;98982.44;5113435;28;19977;-67
2023/03/15 02:12:48;;;;;;;;;;;;;;;4.55;100.00;98977.66;5114102;28;19912;-69
2023/03/15 02:15:14;;;;;;;;;;;;;;;4.59;100.00;98978.97;5094459;28;19942;-69
2023/03/15 02:17:42;;;;;;;;;;;;;;;4.59;100.00;98971.06;5113572;28;19912;-70
2023/03/15 02:20:10;;;;;;;;;;;;;;;4.62;100.00;98974.19;5113149;28;19959;-72
2023/03/15 02:22:51;;;;;;;;;;;;;;;4.65;100.00;98978.31;5113152;28;20385;-70
2023/03/15 02:25:52;;;;;;;;;;;;;;;4.62;100.00;98973.34;5098604;28;19927;-71
2023/03/15 02:28:18;;;;;;;;;;;;;;;4.62;100.00;98978.63;5113789;28;19912;-68
2023/03/15 02:30:44;;;;;;;;;;;;;;;4.62;100.00;98968.91;5113080;28;19916;-71
2023/03/15 02:33:24;;;;;;;;;;;;;;;4.69;100.00;98978.81;5112896;28;19923;-70
2023/03/15 02:35:50;;;;;;;;;;;;;;;4.73;100.00;98988.03;5113032;28;19916;-69
2023/03/15 02:38:16;;;;;;;;;;;;;;;4.75;100.00;98988.69;5113324;28;19919;-70
2023/03/15 02:40:43;;;;;;;;;;;;;;;4.74;100.00;98994.94;5112622;28;20463;-70
2023/03/15 02:43:12;;;;;;;;;;;;;;;4.75;100.00;98992.13;5113100;28;19957;-68
2023/03/15 02:45:38;;;;;;;;;;;;;;;4.76;100.00;99006.16;5112996;28;19947;-71
2023/03/15 02:48:04;;;;;;;;;;;;;;;4.78;100.00;99010.25;5112859;28;19954;-70
2023/03/15 02:50:30;;;;;;;;;;;;;;;4.76;100.00;98998.22;5112841;28;20048;-69
2023/03/15 02:52:55;;;;;;;;;;;;;;;4.79;100.00;99005.81;5113053;28;19916;-70
2023/03/15 02:55:20;;;;;;;;;;;;;;;4.77;100.00;99003.34;5112565;28;19919;-68
2023/03/15 02:57:46;;;;;;;;;;;;;;;4.81;100.00;99009.09;5112632;28;19916;-70
2023/03/15 03:00:13;;;;;;;;;;;;;;;4.83;100.00;99007.09;5112498;28;20339;-70
2023/03/15 03:02:39;;;;;;;;;;;;;;;4.83;100.00;99010.56;5094669;28;20425;-69
2023/03/15 03:05:05;;;;;;;;;;;;;;;4.86;100.00;99001.50;5112367;28;19919;-69
2023/03/15 03:07:30;;;;;;;;;;;;;;;4.84;100.00;99008.75;5094765;28;19912;-70
2023/03/15 03:09:56;;;;;;;;;;;;;;;4.83;100.00;99015.03;5113444;28;19989;-69
2023/03/15 03:12:21;;;;;;;;;;;;;;;4.83;100.00;99015.03;5121691;28;19919;-69
2023/03/15 03:14:47;;;;;;;;;;;;;;;4.82;100.00;99019.47;5113203;28;19918;-70
2023/03/15 03:17:13;;;;;;;;;;;;;;;4.79;100.00;99013.72;5113119;28;19956;-70
2023/03/15 03:19:38;;;;;;;;;;;;;;;4.82;100.00;99027.38;5112247;28;19955;-68
2023/03/15 03:22:04;;;;;;;;;;;;;;;4.84;100.00;99019.31;5112759;28;19938;-70
2023/03/15 03:24:30;;;;;;;;;;;;;;;4.85;100.00;99021.78;5094511;28;19912;-69
2023/03/15 03:26:56;;;;;;;;;;;;;;;4.88;100.00;99036.44;5112356;28;19954;-69
2023/03/15 03:29:23;;;;;;;;;;;;;;;4.90;100.00;99026.53;5111959;28;19935;-69
2023/03/15 03:31:48;;;;;;;;;;;;;;;4.92;100.00;99029.84;5112674;28;20402;-67
2023/03/15 03:34:14;;;;;;;;;;;;;;;4.90;100.00;99040.56;5112251;28;19939;-71
2023/03/15 03:36:40;;;;;;;;;;;;;;;4.90;100.00;99029.19;5094182;28;19916;-69
2023/03/15 03:39:05;;;;;;;;;;;;;;;4.91;100.00;99030.81;5112163;28;19912;-70
2023/03/15 03:41:31;;;;;;;;;;;;;;;4.87;100.00;99032.16;5112460;28;19954;-68
2023/03/15 03:43:56;;;;;;;;;;;;;;;4.87;100.00;99040.06;5112118;28;19922;-69
2023/03/15 03:46:21;;;;;;;;;;;;;;;4.87;100.00;99042.69;5112190;28;19911;-69
2023/03/15 03:48:46;;;;;;;;;;;;;;;4.86;100.00;99048.97;5112146;28;19912;-68
2023/03/15 03:51:12;;;;;;;;;;;;;;;4.82;100.00;99052.94;5112309;28;19918;-69
2023/03/15 03:53:37;;;;;;;;;;;;;;;4.81;100.00;99056.56;5114060;28;19912;-69
2023/03/15 03:56:03;;;;;;;;;;;;;;;4.80;100.00;99054.91;5116089;28;19962;-73
2023/03/15 03:58:29;;;;;;;;;;;;;;;4.78;100.00;99057.72;5097390;28;20333;-70
2023/03/15 04:00:55;;;;;;;;;;;;;;;4.80;100.00;99060.19;5115504;28;19912;-67
2023/03/15 04:03:25;;;;;;;;;;;;;;;4.75;100.00;99065.16;5115305;28;20388;-68
2023/03/15 04:05:51;;;;;;;;;;;;;;;4.73;100.00;99075.88;5097263;28;19951;-69
2023/03/15 04:08:17;;;;;;;;;;;;;;;4.73;100.00;99078.50;5097480;28;19911;-68
2023/03/15 04:10:42;;;;;;;;;;;;;;;4.74;100.00;99082.78;5097758;28;19938;-68
2023/03/15 04:13:07;;;;;;;;;;;;;;;4.72;100.00;99081.31;5115774;28;19965;-67
2023/03/15 04:15:33;;;;;;;;;;;;;;;4.75;100.00;99088.88;5115321;28;19912;-67
2023/03/15 04:17:58;;;;;;;;;;;;;;;4.73;100.00;99096.16;5115455;28;20287;-68
2023/03/15 04:20:24;;;;;;;;;;;;;;;4.70;100.00;99097.31;5115393;28;20014;-68
2023/03/15 04:22:49;;;;;;;;;;;;;;;4.72;100.00;99094.50;5115284;28;19957;-70
2023/03/15 04:25:16;;;;;;;;;;;;;;;4.69;100.00;99100.09;5115261;28;20366;-67
2023/03/15 04:27:41;;;;;;;;;;;;;;;4.66;100.00;99104.72;5114957;28;19916;-68
2023/03/15 04:30:07;;;;;;;;;;;;;;;4.68;100.00;99101.09;5119522;27;19923;-72
2023/03/15 04:32:32;;;;;;;;;;;;;;;4.66;100.00;99096.00;5115434;27;19916;-68
2023/03/15 04:34:57;;;;;;;;;;;;;;;4.66;100.00;99101.25;5113682;28;20385;-69
2023/03/15 04:37:23;;;;;;;;;;;;;;;4.69;100.00;99100.09;5118956;27;20289;-68
2023/03/15 04:39:48;;;;;;;;;;;;;;;4.71;100.00;99100.75;5122280;27;20052;-69
2023/03/15 04:42:13;;;;;;;;;;;;;;;4.73;100.00;99112.78;5132402;27;19912;-68
2023/03/15 04:44:39;;;;;;;;;;;;;;;4.75;100.00;99104.72;5135055;27;19911;-68
2023/03/15 04:47:05;;;;;;;;;;;;;;;4.76;100.00;99112.47;5130132;27;19916;-67
2023/03/15 04:49:30;;;;;;;;;;;;;;;4.74;100.00;99124.16;5114617;28;19998;-67
2023/03/15 04:51:55;;;;;;;;;;;;;;;4.73;100.00;99122.50;5114769;28;19947;-68
2023/03/15 04:54:22;;;;;;;;;;;;;;;4.75;100.00;99126.63;5130331;27;19919;-67
2023/03/15 04:56:47;;;;;;;;;;;;;;;4.77;100.00;99137.03;5134782;27;19938;-68
2023/03/15 04:59:12;;;;;;;;;;;;;;;4.77;100.00;99139.66;5134382;27;20274;-67
2023/03/15 05:01:38;;;;;;;;;;;;;;;4.78;100.00;99152.69;5134928;27;19918;-66
2023/03/15 05:04:03;;;;;;;;;;;;;;;4.80;100.00;99150.69;5116792;27;19923;-69
2023/03/15 05:06:28;;;;;;;;;;;;;;;4.84;100.00;99151.19;5135672;27;19911;-67
2023/03/15 05:08:54;;;;;;;;;;;;;;;4.82;100.00;99147.88;5117242;27;20355;-67
2023/03/15 05:11:22;;;;;;;;;;;;;;;4.80;100.00;99144.59;5135339;27;19912;-67
2023/03/15 05:13:47;;;;;;;;;;;;;;;4.82;100.00;99142.63;5134856;27;19911;-67
2023/03/15 05:16:12;;;;;;;;;;;;;;;4.84;100.00;99140.63;5134614;27;20020;-67
2023/03/15 05:18:38;;;;;;;;;;;;;;;4.85;100.00;99152.84;5134595;27;20274;-67
2023/03/15 05:21:05;;;;;;;;;;;;;;;4.87;100.00;99148.22;5134673;27;19915;-67
2023/03/15 05:23:31;;;;;;;;;;;;;;;4.91;100.00;99153.00;5133401;27;20323;-66
2023/03/15 05:26:05;;;;;;;;;;;;;;;4.93;100.00;99147.56;5134189;27;19920;-66
2023/03/15 05:28:33;;;;;;;;;;;;;;;4.89;100.00;99156.78;5134123;27;19927;-68
2023/03/15 05:31:01;;;;;;;;;;;;;;;4.94;100.00;99149.22;5134288;27;19916;-67
2023/03/15 05:33:26;;;;;;;;;;;;;;;4.96;100.00;99147.25;5115084;27;19931;-71
2023/03/15 05:35:54;;;;;;;;;;;;;;;4.98;100.00;99148.72;5131144;27;19916;-68
2023/03/15 05:38:25;;;;;;;;;;;;;;;4.98;100.00;99147.91;5104239;27;20231;-66
2023/03/15 05:40:50;;;;;;;;;;;;;;;4.97;100.00;99152.34;5104621;27;19912;-70
2023/03/15 05:43:16;;;;;;;;;;;;;;;5.02;100.00;99151.03;5122691;27;19922;-70
2023/03/15 05:45:43;;;;;;;;;;;;;;;5.07;100.00;99161.91;5122495;27;20006;-65
2023/03/15 05:48:08;;;;;;;;;;;;;;;5.10;100.00;99159.75;5125791;27;20043;-65
2023/03/15 05:50:34;;;;;;;;;;;;;;;5.11;100.00;99169.31;5135150;27;19923;-66
2023/03/15 05:52:59;;;;;;;;;;;;;;;5.12;100.00;99170.13;5134494;27;19962;-65
2023/03/15 05:55:24;;;;;;;;;;;;;;;5.12;100.00;99172.78;5133877;27;19943;-69
2023/03/15 05:57:50;;;;;;;;;;;;;;;5.19;100.00;99179.84;5134904;27;19969;-67
2023/03/15 06:00:16;;;;;;;;;;;;;;;5.25;100.00;99176.56;5133869;27;19927;-66
2023/03/15 06:02:41;;;;;;;;;;;;;;;5.27;100.00;99193.06;5135144;27;19946;-65
2023/03/15 06:05:07;;;;;;;;;;;;;;;5.25;100.00;99192.41;5118025;27;19915;-64
2023/03/15 06:07:32;;;;;;;;;;;;;;;5.25;100.00;99197.69;5117645;27;19919;-66
2023/03/15 06:09:57;;;;;;;;;;;;;;;5.25;100.00;99192.41;5131847;27;20281;-66
2023/03/15 06:12:22;;;;;;;;;;;;;;;5.27;100.00;99190.44;5103488;28;19915;-67
2023/03/15 06:14:48;;;;;;;;;;;;;;;5.30;100.00;99194.53;5129895;27;19911;-66
2023/03/15 06:17:21;;;;;;;;;;;;;;;5.29;100.00;99198.16;5135407;27;19957;-70
2023/03/15 06:19:46;;;;;;;;;;;;;;;5.32;100.00;99210.22;5137494;27;19916;-65
2023/03/15 06:22:11;;;;;;;;;;;;;;;5.31;100.00;99211.19;5131937;27;19965;-65
2023/03/15 06:24:37;;;;;;;;;;;;;;;5.31;100.00;99205.91;5109140;27;20366;-66
2023/03/15 06:27:02;;;;;;;;;;;;;;;5.28;100.00;99212.38;5121532;27;20007;-65
2023/03/15 06:29:28;;;;;;;;;;;;;;;5.26;100.00;99206.44;5124031;27;20037;-66
2023/03/15 06:31:53;;;;;;;;;;;;;;;5.26;100.00;99209.91;5123105;27;20260;-68
2023/03/15 06:34:19;;;;;;;;;;;;;;;5.31;100.00;99208.56;5130499;27;20267;-65
2023/03/15 06:36:45;;;;;;;;;;;;;;;5.29;100.00;99219.28;5114989;28;20006;-66
2023/03/15 06:39:11;;;;;;;;;;;;;;;5.32;100.00;99210.22;5133575;27;20071;-66
2023/03/15 06:41:36;;;;;;;;;;;;;;;5.35;100.00;99209.88;5133412;28;19922;-67
2023/03/15 06:44:01;;;;;;;;;;;;;;;5.35;100.00;99223.91;5133448;28;20014;-65
2023/03/15 06:46:27;;;;;;;;;;;;;;;5.40;100.00;99220.75;5133899;28;19911;-66
2023/03/15 06:48:52;;;;;;;;;;;;;;;5.40;100.00;99220.75;5133435;28;19912;-66
2023/03/15 06:51:20;;;;;;;;;;;;;;;5.43;100.00;99220.41;5133166;28;20007;-66
2023/03/15 06:53:45;;;;;;;;;;;;;;;5.44;100.00;99222.06;5133084;28;19911;-67
2023/03/15 06:56:11;;;;;;;;;;;;;;;5.47;100.00;99227.00;5133102;28;19918;-67
2023/03/15 06:58:36;;;;;;;;;;;;;;;5.46;100.00;99226.19;5133182;28;19955;-68
2023/03/15 07:01:02;;;;;;;;;;;;;;;5.46;100.00;99225.34;5132923;28;19969;-66
2023/03/15 07:03:27;;;;;;;;;;;;;;;5.42;100.00;99239.88;5115012;28;19950;-66
2023/03/15 07:05:53;;;;;;;;;;;;;;;5.37;100.00;99243.03;5133294;28;19937;-67
2023/03/15 07:08:19;;;;;;;;;;;;;;;5.33;100.00;99256.72;5133059;28;19964;-65
2023/03/15 07:10:45;;;;;;;;;;;;;;;5.26;100.00;99252.13;5132659;28;19912;-68
2023/03/15 07:13:11;;;;;;;;;;;;;;;5.27;100.00;99259.06;5132817;28;19918;-65
2023/03/15 07:15:38;;;;;;;;;;;;;;;5.25;100.00;99266.31;5134329;28;19915;-65
2023/03/15 07:18:04;;;;;;;;;;;;;;;5.28;100.00;99265.97;5132944;28;19911;-66
2023/03/15 07:20:30;;;;;;;;;;;;;;;5.29;100.00;99272.91;5132906;28;20239;-66
2023/03/15 07:22:56;;;;;;;;;;;;;;;5.24;100.00;99280.50;5132908;28;19912;-66
2023/03/15 07:25:22;;;;;;;;;;;;;;;5.20;100.00;99287.09;5115024;28;19916;-67
2023/03/15 07:27:51;;;;;;;;;;;;;;;5.22;100.00;99286.94;5127142;27;20279;-66
2023/03/15 07:30:19;;;;;;;;;;;;;;;5.23;100.00;99293.88;5136134;27;19921;-66
2023/03/15 07:32:45;;;;;;;;;;;;;;;5.17;100.00;99284.75;5127737;27;20366;-66
2023/03/15 07:35:13;;;;;;;;;;;;;;;5.18;100.00;99296.13;5118248;27;19934;-67
2023/03/15 07:37:39;;;;;;;;;;;;;;;5.22;100.00;99298.31;5138010;27;19918;-67
2023/03/15 07:40:08;;;;;;;;;;;;;;;5.25;100.00;99292.72;5137908;27;20002;-67
2023/03/15 07:42:34;;;;;;;;;;;;;;;5.31;100.00;99303.59;5132712;27;19918;-70
2023/03/15 07:45:00;;;;;;;;;;;;;;;5.26;100.00;99294.34;5097565;28;19959;-68
2023/03/15 07:47:25;;;;;;;;;;;;;;;5.20;100.00;99281.81;5097504;28;19962;-68
2023/03/15 07:49:51;;;;;;;;;;;;;;;5.20;100.00;99295.03;5117671;28;19911;-68
2023/03/15 07:52:16;;;;;;;;;;;;;;;5.23;100.00;99294.69;5116949;28;20363;-67
2023/03/15 07:54:42;;;;;;;;;;;;;;;5.28;100.00;99295.00;5117833;28;19912;-69
2023/03/15 07:57:07;;;;;;;;;;;;;;;5.30;100.00;99284.28;5116151;28;19950;-70
2023/03/15 07:59:33;;;;;;;;;;;;;;;5.35;100.00;99291.72;5118186;28;19916;-67
2023/03/15 08:01:58;;;;;;;;;;;;;;;5.38;100.00;99286.09;5121147;28;19912;-67
2023/03/15 08:04:24;;;;;;;;;;;;;;;5.38;100.00;99276.38;5117395;28;19912;-65
2023/03/15 08:06:50;;;;;;;;;;;;;;;5.43;100.00;99291.69;5080102;28;19953;-68
2023/03/15 08:09:18;;;;;;;;;;;;;;;5.45;100.00;99292.34;5115565;28;19911;-65
2023/03/15 08:11:43;;;;;;;;;;;;;;;5.44;100.00;99302.09;5119387;28;20014;-65
2023/03/15 08:14:09;;;;;;;;;;;;;;;5.43;100.00;99302.25;5115224;28;19958;-67
2023/03/15 08:16:35;;;;;;;;;;;;;;;5.44;100.00;99291.53;5116756;28;19951;-68
2023/03/15 08:19:01;;;;;;;;;;;;;;;5.42;100.00;99301.44;5115581;28;19911;-67
2023/03/15 08:21:26;;;;;;;;;;;;;;;5.41;100.00;99307.72;5117554;28;20006;-68
2023/03/15 08:23:54;;;;;;;;;;;;;;;5.42;100.00;99308.53;5115220;28;19947;-66
2023/03/15 08:26:19;;;;;;;;;;;;;;;5.40;100.00;99319.25;5114692;28;20333;-67
2023/03/15 08:28:44;;;;;;;;;;;;;;;5.39;100.00;99311.50;5115196;28;20015;-68
2023/03/15 08:31:12;;;;;;;;;;;;;;;5.38;100.00;99312.50;5115690;28;19915;-65
2023/03/15 08:33:41;;;;;;;;;;;;;;;5.31;100.00;99327.34;5118303;28;19915;-69
2023/03/15 08:36:06;;;;;;;;;;;;;;;5.27;100.00;99338.25;5115813;28;19923;-73
2023/03/15 08:38:32;;;;;;;;;;;;;;;5.19;100.00;99406.81;5080762;28;19911;-68
2023/03/15 08:40:57;;;;;;;;;;;;;;;4.83;100.00;99423.84;5115451;28;20431;-69
2023/03/15 08:43:22;;;;;;;;;;;;;;;4.38;100.00;99446.03;5116306;28;20014;-68
2023/03/15 08:45:49;;;;;;;;;;;;;;;4.04;100.00;99438.88;5118449;28;19919;-70
2023/03/15 08:48:18;;;;;;;;;;;;;;;3.81;100.00;99448.25;5123272;28;19962;-68
2023/03/15 08:50:46;;;;;;;;;;;;;;;3.62;100.00;99465.00;5109417;28;19912;-66
2023/03/15 08:53:12;;;;;;;;;;;;;;;3.45;100.00;99484.22;5120852;28;20312;-67
2023/03/15 08:55:39;;;;;;;;;;;;;;;3.24;100.00;99502.09;5101775;28;19912;-67
2023/03/15 08:58:05;;;;;;;;;;;;;;;3.11;100.00;99502.44;5125315;28;20004;-70
2023/03/15 09:00:33;;;;;;;;;;;;;;;2.97;100.00;99527.41;5085309;28;20367;-65
2023/03/15 09:03:02;;;;;;;;;;;;;;;2.78;100.00;99538.00;5120399;28;19911;-70
2023/03/15 09:05:31;;;;;;;;;;;;;;;2.63;100.00;99535.00;5123018;28;19919;-67
2023/03/15 09:07:57;;;;;;;;;;;;;;;2.58;100.00;99531.94;5104727;28;19958;-68
2023/03/15 09:10:22;;;;;;;;;;;;;;;2.62;100.00;99546.47;5102980;28;19911;-66
2023/03/15 09:12:50;;;;;;;;;;;;;;;2.54;100.00;99550.75;5120421;27;19918;-66
2023/03/15 09:15:18;;;;;;;;;;;;;;;2.48;100.00;99562.66;5085267;28;19912;-67
2023/03/15 09:17:49;;;;;;;;;;;;;;;2.42;100.00;99563.25;5085647;28;19912;-74
2023/03/15 09:20:15;;;;;;;;;;;;;;;2.38;100.00;99586.34;5101886;28;19912;-68
2023/03/15 09:22:41;;;;;;;;;;;;;;;2.24;100.00;99596.41;5099821;28;20367;-64
2023/03/15 09:25:08;;;;;;;;;;;;;;;2.12;100.00;99591.31;5118921;28;19915;-67
2023/03/15 09:27:36;;;;;;;;;;;;;;;2.07;100.00;99600.56;5103004;28;19912;-65
2023/03/15 09:30:03;;;;;;;;;;;;;;;1.99;100.00;99605.66;5116400;28;19985;-66
2023/03/15 09:32:35;;;;;;;;;;;;;;;1.97;100.00;99605.78;5119007;28;20259;-64
2023/03/15 09:35:03;;;;;;;;;;;;;;;1.89;100.00;99600.38;5088420;28;20378;-65
2023/03/15 09:37:28;;;;;;;;;;;;;;;1.91;100.00;99606.34;5117865;28;19911;-69
2023/03/15 09:39:54;;;;;;;;;;;;;;;1.89;100.00;99624.03;5113910;28;19957;-70
2023/03/15 09:42:27;;;;;;;;;;;;;;;1.93;100.00;99628.03;5095622;28;20308;-68
2023/03/15 09:45:03;;;;;;;;;;;;;;;1.96;100.00;99624.31;5118229;27;19915;-65
2023/03/15 09:48:04;;;;;;;;;;;;;;;1.99;100.00;99626.66;5117165;27;19919;-66
2023/03/15 09:50:32;;;;;;;;;;;;;;;1.95;100.00;99641.84;5047436;28;19913;-67
2023/03/15 09:53:09;;;;;;;;;;;;;;;1.93;100.00;99649.03;5119916;27;19970;-66
2023/03/15 09:55:35;;;;;;;;;;;;;;;1.90;100.00;99672.13;5134226;27;19919;-68
2023/03/15 09:58:09;;;;;;;;;;;;;;;1.81;100.00;99671.13;5122416;27;19954;-70
2023/03/15 10:00:39;;;;;;;;;;;;;;;1.81;100.00;99658.00;5122871;27;19956;-67
2023/03/15 10:03:08;;;;;;;;;;;;;;;1.88;100.00;99690.63;5119007;27;20332;-66
2023/03/15 10:05:41;;;;;;;;;;;;;;;1.97;100.00;99705.56;5113915;28;19965;-67
2023/03/15 10:08:08;;;;;;;;;;;;;;;2.07;100.00;99711.69;5114852;28;19915;-68
2023/03/15 10:10:37;;;;;;;;;;;;;;;2.09;100.00;99717.66;5097845;27;19912;-66
2023/03/15 10:13:23;;;;;;;;;;;;;;;2.02;100.00;99721.75;5134070;27;20382;-65
2023/03/15 10:15:58;;;;;;;;;;;;;;;2.06;100.00;99735.47;5119699;27;19936;-67
2023/03/15 10:18:32;;;;;;;;;;;;;;;2.10;100.00;99734.25;5133679;27;19912;-67
2023/03/15 10:21:04;;;;;;;;;;;;;;;2.19;100.00;99730.81;5113660;28;20453;-68
2023/03/15 10:23:34;;;;;;;;;;;;;;;2.30;100.00;99733.31;5078109;28;20270;-68
2023/03/15 10:26:02;;;;;;;;;;;;;;;2.32;100.00;99751.59;5121470;27;19911;-68
2023/03/15 10:28:30;;;;;;;;;;;;;;;2.33;100.00;99748.00;5123074;27;19915;-66
2023/03/15 10:30:58;;;;;;;;;;;;;;;2.36;100.00;99758.22;5127533;27;19916;-66
2023/03/15 10:33:28;;;;;;;;;;;;;;;2.43;100.00;99743.59;5120828;27;19976;-67
2023/03/15 10:35:54;;;;;;;;;;;;;;;2.48;100.00;99741.38;5112952;28;19912;-66
2023/03/15 10:38:20;;;;;;;;;;;;;;;2.53;100.00;99749.69;5113724;28;19934;-67
2023/03/15 10:40:47;;;;;;;;;;;;;;;2.55;100.00;99762.69;5113882;28;19915;-67
2023/03/15 10:43:23;;;;;;;;;;;;;;;2.61;100.00;99768.25;5118962;28;19934;-72
2023/03/15 10:46:07;;;;;;;;;;;;;;;2.61;100.00;99777.94;5100321;28;19919;-67
2023/03/15 10:48:33;;;;;;;;;;;;;;;2.63;100.00;99787.34;5122135;28;19918;-71
2023/03/15 10:51:04;;;;;;;;;;;;;;;2.58;100.00;99789.53;5120004;28;19912;-68
2023/03/15 10:53:29;;;;;;;;;;;;;;;2.54;100.00;99803.06;5116591;28;20010;-66
2023/03/15 10:56:00;;;;;;;;;;;;;;;2.47;100.00;99814.13;5098919;28;19947;-66
2023/03/15 10:58:37;;;;;;;;;;;;;;;2.48;100.00;99825.47;5113433;28;20033;-67
2023/03/15 11:01:06;;;;;;;;;;;;;;;2.51;100.00;99835.72;5112954;28;19915;-71
2023/03/15 11:03:32;;;;;;;;;;;;;;;2.45;100.00;99844.13;5116357;28;19912;-69
2023/03/15 11:05:57;;;;;;;;;;;;;;;2.41;100.00;99834.88;5116605;28;20266;-69
2023/03/15 11:08:37;;;;;;;;;;;;;;;2.47;100.00;99844.84;5116546;28;20392;-69
2023/03/15 11:11:03;;;;;;;;;;;;;;;2.43;100.00;99867.94;5116901;28;20006;-68
2023/03/15 11:13:29;;;;;;;;;;;;;;;2.47;100.00;99877.19;5117198;28;19999;-67
2023/03/15 11:15:55;;;;;;;;;;;;;;;2.47;100.00;99882.47;5117098;28;20286;-68
2023/03/15 11:18:28;;;;;;;;;;;;;;;2.43;100.00;99869.72;5116504;28;19912;-66
2023/03/15 11:20:54;;;;;;;;;;;;;;;2.47;100.00;99881.63;5116245;28;19919;-68
2023/03/15 11:23:22;;;;;;;;;;;;;;;2.46;100.00;99898.34;5116590;28;19911;-66
2023/03/15 11:25:48;;;;;;;;;;;;;;;2.45;100.00;99909.84;5098614;28;19916;-69
2023/03/15 11:28:17;;;;;;;;;;;;;;;2.50;100.00;99910.28;5116582;28;19919;-67
2023/03/15 11:30:45;;;;;;;;;;;;;;;2.44;100.00;99923.94;5111726;28;19915;-67
2023/03/15 11:33:17;;;;;;;;;;;;;;;2.51;100.00;99919.81;5123830;27;19916;-67
2023/03/15 11:35:48;;;;;;;;;;;;;;;2.65;100.00;99927.38;5124599;27;19916;-66
2023/03/15 11:38:17;;;;;;;;;;;;;;;2.61;100.00;99915.47;5111345;27;19998;-68
2023/03/15 11:40:46;;;;;;;;;;;;;;;2.60;100.00;99924.31;5122140;27;19966;-70
2023/03/15 11:43:30;;;;;;;;;;;;;;;2.74;100.00;99936.25;5103849;27;19911;-74
2023/03/15 11:46:09;;;;;;;;;;;;;;;2.84;100.00;99941.53;5126763;27;19957;-67
2023/03/15 11:48:49;;;;;;;;;;;;;;;2.94;100.00;99937.16;5123913;27;20329;-67
2023/03/15 11:51:15;;;;;;;;;;;;;;;3.07;100.00;99949.09;5110097;27;19915;-68
2023/03/15 11:53:47;;;;;;;;;;;;;;;3.13;99.40;99957.41;5109214;27;19911;-73
2023/03/15 11:56:21;;;;;;;;;;;;;;;3.21;98.50;99957.59;5124923;27;19912;-72
2023/03/15 11:59:19;;;;;;;;;;;;;;;3.17;97.17;99970.16;5124012;27;19919;-72
2023/03/15 12:01:49;;;;;;;;;;;;;;;3.10;97.63;99979.56;5077472;27;19911;-73
2023/03/15 12:04:24;;;;;;;;;;;;;;;3.12;96.78;99988.16;5107738;27;20055;-73
2023/03/15 12:06:52;;;;;;;;;;;;;;;3.15;97.58;99989.66;5127077;27;19912;-73
2023/03/15 12:09:32;;;;;;;;;;;;;;;3.22;96.10;99989.03;5130355;27;20319;-73
2023/03/15 12:12:02;;;;;;;;;;;;;;;3.18;94.67;99992.91;5132835;27;19919;-74
2023/03/15 12:14:37;;;;;;;;;;;;;;;3.05;94.17;99997.53;5110530;27;19934;-75
2023/03/15 12:17:21;;;;;;;;;;;;;;;3.13;95.40;100010.84;5124964;27;19912;-78
2023/03/15 12:19:47;;;;;;;;;;;;;;;3.14;94.31;100009.06;5112470;27;19915;-75
2023/03/15 12:22:15;;;;;;;;;;;;;;;3.15;94.69;100014.19;5138008;27;19917;-73
2023/03/15 12:24:46;;;;;;;;;;;;;;;3.23;93.84;100019.63;5141015;27;19918;-73
2023/03/15 12:27:16;;;;;;;;;;;;;;;3.32;94.49;100034.59;5137724;27;19915;-73
2023/03/15 12:29:48;;;;;;;;;;;;;;;3.29;92.27;100027.00;5135570;27;19922;-73
2023/03/15 12:32:15;;;;;;;;;;;;;;;3.30;93.16;100019.91;5136349;27;19941;-72
2023/03/15 12:35:07;;;;;;;;;;;;;;;3.35;91.98;100034.34;5142792;27;19923;-75
2023/03/15 12:37:37;;;;;;;;;;;;;;;3.24;92.45;100050.25;5120092;27;20022;-72
2023/03/15 12:40:14;;;;;;;;;;;;;;;3.25;93.54;100054.53;5135903;27;19911;-70
2023/03/15 12:42:43;;;;;;;;;;;;;;;3.30;93.15;100060.22;5097568;28;19911;-72
2023/03/15 12:45:14;;;;;;;;;;;;;;;3.31;92.79;100061.91;5115604;28;19912;-70
2023/03/15 12:48:05;;;;;;;;;;;;;;;3.35;91.98;100084.34;5114855;28;19912;-71
2023/03/15 12:50:51;;;;;;;;;;;;;;;3.34;89.49;100103.75;5102718;28;19954;-71